Glider Field Castricum

NL-0029 · Olanda Settentrionale, Paesi Bassi

Storia di METAR NL-0029 · Glider Field Castricum

Di seguito sono riportati i METAR degli ultimi giorni. Seleziona un anno per sfogliare i METAR più vecchi, dall'anno 2007 in poi.

12 aprile 2024

Tempo Codice Tempo meteorologico Temp. Vista Base nuvolosa Vento METAR/SPECI
23:55
V
15 °C 10 km+ - 230° 230° 13 kt METAR EHAM 122155Z 23013KT CAVOK 15/11 Q1026 NOSIG
23:25
V
16 °C 10 km+ - 230° 230° 15 kt METAR EHAM 122125Z 23015KT 200V260 CAVOK 16/11 Q1026 NOSIG
22:55
V
16 °C 10 km+ - 230° 230° 12 kt METAR EHAM 122055Z 23012KT 200V260 CAVOK 16/11 Q1026 NOSIG
22:25
V
15 °C 10 km+ - 230° 230° 13 kt METAR EHAM 122025Z 23013KT CAVOK 15/11 Q1026 NOSIG
21:55
V
15 °C 10 km+ - 230° 230° 13 kt METAR EHAM 121955Z 23013KT CAVOK 15/10 Q1026 NOSIG
21:25
V
15 °C 10 km+ - 220° 220° 11 kt METAR EHAM 121925Z 22011KT CAVOK 15/10 Q1027 NOSIG
20:55
V
15 °C 10 km+ - 220° 220° 10 kt METAR EHAM 121855Z 22010KT CAVOK 15/11 Q1027 NOSIG
20:25
V
16 °C 10 km+ - 230° 230° 10 kt METAR EHAM 121825Z 23010KT 200V260 CAVOK 16/11 Q1027 NOSIG
19:55
V
16 °C 10 km+ - 230° 230° 13 kt METAR EHAM 121755Z 23013KT CAVOK 16/11 Q1027 NOSIG
19:25
V
17 °C 10 km+ - 240° 240° 15 kt METAR EHAM 121725Z 24015KT 210V270 CAVOK 17/11 Q1027 NOSIG
18:55
V
17 °C 10 km+ - 240° 240° 15 kt METAR EHAM 121655Z 24015KT CAVOK 17/11 Q1027 NOSIG
17:55
V
17 °C 10 km+ - 250° 250° 18 - 28 kt METAR EHAM 121555Z 25018G28KT CAVOK 17/10 Q1027 NOSIG
17:25
V
18 °C 10 km+ - 250° 250° 18 kt METAR EHAM 121525Z 25018KT 220V280 9999 FEW025 18/11 Q1028 NOSIG
16:55
V
18 °C 10 km+ - 240° 240° 19 - 29 kt METAR EHAM 121455Z 24019G29KT 210V280 9999 FEW025 18/10 Q1028 NOSIG
16:25
V
18 °C 10 km+ - 250° 250° 18 - 28 kt METAR EHAM 121425Z 25018G28KT 220V280 9999 FEW030 18/10 Q1028 NOSIG
15:55
V
18 °C 10 km+ - 240° 240° 18 - 28 kt METAR EHAM 121355Z 24018G28KT 210V270 9999 FEW030 18/10 Q1028 NOSIG
15:25
V
18 °C 10 km+ - 250° 250° 18 - 28 kt METAR EHAM 121325Z 25018G28KT 220V280 9999 FEW030 18/10 Q1028 NOSIG
14:55
V
18 °C 10 km+ - 250° 250° 18 - 28 kt METAR EHAM 121255Z 25018G28KT 220V280 9999 FEW030 18/11 Q1029 NOSIG
14:25
V
18 °C 10 km+ - 250° 250° 20 - 30 kt METAR EHAM 121225Z 25020G30KT 9999 FEW025 18/11 Q1029 NOSIG
13:55
V
18 °C 10 km+ - 240° 240° 19 - 29 kt METAR EHAM 121155Z 24019G29KT 9999 FEW025 18/11 Q1029 NOSIG
13:25
V
18 °C 10 km+ - 250° 250° 16 - 26 kt METAR EHAM 121125Z 25016G26KT 210V280 9999 FEW025 18/11 Q1029 NOSIG
12:55
V
18 °C 10 km+ - 240° 240° 19 kt METAR EHAM 121055Z 24019KT 210V280 9999 FEW025 18/11 Q1029 NOSIG
12:25
V
17 °C 10 km+ - 250° 250° 18 kt METAR EHAM 121025Z 25018KT 9999 FEW025 17/10 Q1029 NOSIG
11:55
V
17 °C 10 km+ - 240° 240° 16 kt METAR EHAM 120955Z 24016KT 210V270 9999 FEW022 17/10 Q1029 NOSIG
11:25
V
17 °C 10 km+ - 240° 240° 19 kt METAR EHAM 120925Z 24019KT 210V270 CAVOK 17/10 Q1029 NOSIG
10:55
V
17 °C 10 km+ - 240° 240° 16 kt METAR EHAM 120855Z 24016KT 210V270 CAVOK 17/10 Q1029 NOSIG
10:25
V
16 °C 10 km+ - 240° 240° 18 - 28 kt METAR EHAM 120825Z 24018G28KT CAVOK 16/09 Q1029 NOSIG
09:55
V
16 °C 10 km+ - 220° 220° 14 kt METAR EHAM 120755Z 22014KT 190V250 CAVOK 16/10 Q1029 NOSIG
09:25
V
15 °C 10 km+ - 220° 220° 13 kt METAR EHAM 120725Z 22013KT 9999 FEW047 15/12 Q1029 NOSIG
08:55
V
14 °C 10 km+ - 210° 210° 14 kt METAR EHAM 120655Z 21014KT 9999 SCT049 14/12 Q1029 NOSIG
08:25
V
13 °C 10 km+ 4.900 ft 210° 210° 11 kt METAR EHAM 120625Z 21011KT 9999 FEW037 BKN049 13/11 Q1029 NOSIG
07:55
V
13 °C 10 km+ - 200° 200° 12 kt METAR EHAM 120555Z 20012KT 9999 FEW045 13/11 Q1029 NOSIG
07:25
V
13 °C 10 km+ - 200° 200° 12 kt METAR EHAM 120525Z 20012KT 9999 SCT044 13/11 Q1028 NOSIG
06:55
V
13 °C 10 km+ 4.100 ft 210° 210° 11 kt METAR EHAM 120455Z 21011KT 190V250 9999 FEW009 BKN041 13/12 Q1029 NOSIG
06:25
V
13 °C 10 km+ 3.900 ft 210° 210° 12 kt METAR EHAM 120425Z 21012KT 9999 FEW008 BKN039 13/12 Q1029 NOSIG
05:55
M
13 °C 10 km+ 1.000 ft 210° 210° 11 kt METAR EHAM 120355Z 21011KT 9999 -DZ FEW008 BKN010 13/12 Q1029 TEMPO SCT012
05:25
M
13 °C 10 km+ 1.000 ft 210° 210° 11 kt METAR EHAM 120325Z 21011KT 9999 FEW008 BKN010 13/12 Q1029 BECMG SCT012
04:55
I
13 °C 10 km+ 800 ft 220° 220° 10 kt METAR EHAM 120255Z 22010KT 9999 BKN008 13/12 Q1029 NOSIG
04:25
I
13 °C 10 km+ 800 ft 210° 210° 11 kt METAR EHAM 120225Z 21011KT 180V240 9999 BKN008 13/12 Q1030 NOSIG
03:55
I
13 °C 10 km+ 900 ft 210° 210° 11 kt METAR EHAM 120155Z 21011KT 9999 BKN009 13/12 Q1029 NOSIG
03:25
I
13 °C 10 km+ 800 ft 220° 220° 12 kt METAR EHAM 120125Z 22012KT 9999 BKN008 13/12 Q1030 NOSIG
02:55
I
13 °C 10 km+ 800 ft 220° 220° 14 kt METAR EHAM 120055Z 22014KT 180V240 9999 BKN008 13/12 Q1030 NOSIG
02:25
I
13 °C 10 km+ 800 ft 220° 220° 13 kt METAR EHAM 120025Z 22013KT 9999 BKN008 13/12 Q1030 NOSIG
01:55
I
13 °C 10 km+ 800 ft 220° 220° 11 kt METAR EHAM 112355Z 22011KT 9999 BKN008 13/12 Q1031 NOSIG
01:25
I
13 °C 8 km 700 ft 210° 210° 10 kt METAR EHAM 112325Z 21010KT 8000 -DZ BKN007 BKN011 13/12 Q1031 TEMPO 7000 BKN010
00:55
I
13 °C 6 km 600 ft 210° 210° 9 kt METAR EHAM 112255Z 21009KT 6000 -DZ BKN006 BKN013 13/13 Q1031 TEMPO 9999 BKN010
00:25
I
13 °C 6 km 700 ft 210° 210° 10 kt METAR EHAM 112225Z 21010KT 6000 -DZ FEW006 BKN007 BKN013 13/12 Q1031 TEMPO 9999 BKN010

11 aprile 2024

Tempo Codice Tempo meteorologico Temp. Vista Base nuvolosa Vento METAR/SPECI
23:55
I
13 °C 6 km 600 ft 200° 200° 8 kt METAR EHAM 112155Z 20008KT 6000 -DZ FEW005 BKN006 BKN015 13/13 Q1031 NOSIG
23:25
I
13 °C 6 km 600 ft 210° 210° 9 kt METAR EHAM 112125Z 21009KT 6000 FEW004 BKN006 BKN010 13/13 Q1031 NOSIG
22:55
I
13 °C 6 km 600 ft 210° 210° 9 kt METAR EHAM 112055Z 21009KT 6000 -DZ FEW004 BKN006 BKN010 13/12 Q1031 NOSIG
22:25
M
13 °C 7 km 1.000 ft 200° 200° 9 kt METAR EHAM 112025Z 20009KT 7000 -DZ FEW005 SCT007 BKN010 13/12 Q1031 TEMPO BKN007
21:55
I
13 °C 6 km 900 ft 210° 210° 8 kt METAR EHAM 111955Z 21008KT 6000 -DZ SCT007 BKN009 BKN013 13/12 Q1031 TEMPO 9000 BKN011
21:25
I
13 °C 10 km+ 800 ft 210° 210° 8 kt METAR EHAM 111925Z 21008KT 9999 FEW007 BKN008 BKN010 13/12 Q1031 TEMPO 6000 -DZ
20:55
M
13 °C 10 km+ 1.000 ft 220° 220° 8 kt METAR EHAM 111855Z 22008KT 9999 FEW008 BKN010 BKN012 13/12 Q1031 BECMG BKN008 TEMPO 6000 -DZ
20:25
M
13 °C 10 km+ 1.100 ft 230° 230° 10 kt METAR EHAM 111825Z 23010KT 9999 FEW009 BKN011 BKN013 13/11 Q1031 BECMG BKN009 TEMPO 6000 -DZ
19:55
M
14 °C 10 km+ 1.500 ft 220° 220° 12 kt METAR EHAM 111755Z 22012KT 190V250 9999 SCT013 BKN015 14/12 Q1031 BECMG BKN012 TEMPO 6000 -DZ
19:25
M
14 °C 10 km+ 1.500 ft 240° 240° 11 kt METAR EHAM 111725Z 24011KT 200V280 9999 FEW013 BKN015 14/11 Q1031 BECMG BKN012 TEMPO 6000 -DZ
18:55
M
14 °C 10 km+ 1.400 ft 210° 210° 11 kt METAR EHAM 111655Z 21011KT 9999 SCT013 BKN014 14/11 Q1031 NOSIG
18:25
M
14 °C 10 km+ 1.400 ft 240° 240° 11 kt METAR EHAM 111625Z 24011KT 9999 FEW013 BKN014 14/11 Q1031 NOSIG
17:55
M
14 °C 10 km+ 1.600 ft 220° 220° 10 kt METAR EHAM 111555Z 22010KT 9999 FEW012 BKN016 14/12 Q1030 TEMPO BKN014
17:25
M
15 °C 10 km+ 1.600 ft 250° 250° 10 kt METAR EHAM 111525Z 25010KT 210V270 9999 FEW012 BKN016 15/12 Q1030 TEMPO BKN014
16:55
M
15 °C 10 km+ 1.700 ft 250° 250° 10 kt METAR EHAM 111455Z 25010KT 210V270 9999 FEW012 BKN017 15/12 Q1030 TEMPO BKN014
16:25
M
15 °C 10 km+ 1.600 ft 250° 250° 11 kt METAR EHAM 111425Z 25011KT 9999 FEW012 BKN016 15/12 Q1030 TEMPO BKN014
15:55
M
15 °C 10 km+ 1.600 ft 240° 240° 12 kt METAR EHAM 111355Z 24012KT 210V270 9999 FEW012 BKN016 15/12 Q1030 TEMPO BKN015
15:25
M
15 °C 10 km+ 1.100 ft 250° 250° 10 kt METAR EHAM 111325Z 25010KT 220V280 9999 BKN011 BKN017 15/12 Q1030 TEMPO BKN015
14:55
M
15 °C 10 km+ 1.100 ft 250° 250° 12 kt METAR EHAM 111255Z 25012KT 9999 BKN011 BKN017 15/12 Q1030 TEMPO BKN015
14:25
M
15 °C 10 km+ 1.100 ft 260° 260° 11 kt METAR EHAM 111225Z 26011KT 220V280 9999 FEW009 BKN011 BKN018 15/13 Q1030 TEMPO BKN015
13:55
I
14 °C 10 km+ 900 ft 250° 250° 11 kt METAR EHAM 111155Z 25011KT 220V280 9999 FEW007 BKN009 BKN018 14/13 Q1030 BECMG BKN012
13:25
I
14 °C 10 km+ 800 ft 240° 240° 12 kt METAR EHAM 111125Z 24012KT 9999 FEW006 BKN008 BKN019 14/13 Q1030 TEMPO 7000 -DZ
12:55
I
14 °C 10 km+ 800 ft 240° 240° 13 kt METAR EHAM 111055Z 24013KT 220V290 9999 -DZ FEW004 SCT006 BKN008 14/13 Q1030 TEMPO 4500 DZ
12:25
I
13 °C 5 km 500 ft 240° 240° 14 kt METAR EHAM 111025Z 24014KT 5000 -DZ FEW004 BKN005 BKN006 13/13 Q1030 TEMPO 3000 DZ
11:55
I
13 °C 3,5 km 500 ft 250° 250° 12 kt METAR EHAM 110955Z 25012KT 3500 -DZ FEW003 BKN005 BKN006 13/12 Q1029 TEMPO 9999 NSW
11:25
I
13 °C 4,5 km 500 ft 240° 240° 14 kt METAR EHAM 110925Z 24014KT 4500 -DZ FEW003 BKN005 BKN006 13/12 Q1029 BECMG 9999 NSW
10:55
I
13 °C 3 km 500 ft 240° 240° 15 kt METAR EHAM 110855Z 24015KT 210V270 3000 DZ FEW003 BKN005 BKN006 13/12 Q1029 BECMG 9999 NSW
10:25
I
13 °C 10 km+ 600 ft 240° 240° 16 kt METAR EHAM 110825Z 24016KT 9999 4000NW -DZ FEW003 SCT005 BKN006 13/12 Q1028 TEMPO 7000
09:55
I
13 °C 8 km 600 ft 240° 240° 15 kt METAR EHAM 110755Z 24015KT 210V270 8000 -DZ FEW004 BKN006 BKN009 13/12 Q1028 TEMPO 7000
09:25
I
13 °C 10 km+ 600 ft 230° 230° 14 kt METAR EHAM 110725Z 23014KT 200V260 9999 -DZ FEW005 OVC006 13/12 Q1028 NOSIG
08:55
I
12 °C 8 km 700 ft 220° 220° 12 kt METAR EHAM 110655Z 22012KT 190V250 8000 -DZ SCT006 OVC007 12/11 Q1027 NOSIG
08:25
I
12 °C 10 km+ 700 ft 210° 210° 14 kt METAR EHAM 110625Z 21014KT 9999 BKN007 BKN009 12/11 Q1027 NOSIG
07:55
I
12 °C 10 km+ 900 ft 210° 210° 16 kt METAR EHAM 110555Z 21016KT 9999 FEW008 BKN009 BKN010 12/11 Q1027 NOSIG
07:25
M
12 °C 10 km+ 1.000 ft 220° 220° 16 kt METAR EHAM 110525Z 22016KT 9999 -RA FEW009 BKN010 BKN012 12/11 Q1027 BECMG BKN009
06:55
M
12 °C 10 km+ 1.100 ft 220° 220° 14 kt METAR EHAM 110455Z 22014KT 9999 -RADZ FEW009 BKN011 BKN013 12/10 Q1027 BECMG BKN009
06:25
M
12 °C 10 km+ 1.400 ft 210° 210° 13 kt METAR EHAM 110425Z 21013KT 9999 -DZRA FEW012 BKN014 12/10 Q1026 BECMG BKN009
05:55
M
12 °C 10 km+ 1.400 ft 210° 210° 16 kt METAR EHAM 110355Z 21016KT 9999 -RADZ BKN014 12/09 Q1026 BECMG BKN009
05:25
M
12 °C 10 km+ 1.600 ft 210° 210° 16 kt METAR EHAM 110325Z 21016KT 180V240 9999 FEW014 BKN016 12/09 Q1026 BECMG BKN013
04:55
M
12 °C 10 km+ 1.700 ft 210° 210° 20 kt METAR EHAM 110255Z 21020KT 9999 FEW013 BKN017 12/09 Q1026 BECMG BKN013
04:25
M
13 °C 10 km+ 1.900 ft 220° 220° 18 kt METAR EHAM 110225Z 22018KT 9999 FEW013 BKN019 13/08 Q1027 BECMG BKN015
03:55
M
13 °C 10 km+ 2.200 ft 210° 210° 14 kt METAR EHAM 110155Z 21014KT 9999 FEW017 BKN022 13/07 Q1027 BECMG BKN018
03:25
M
13 °C 10 km+ 2.400 ft 210° 210° 14 kt METAR EHAM 110125Z 21014KT 9999 FEW019 BKN024 13/07 Q1026 BECMG BKN018
02:55
M
13 °C 10 km+ 2.500 ft 210° 210° 15 kt METAR EHAM 110055Z 21015KT 9999 BKN025 13/07 Q1027 NOSIG
02:25
V
13 °C 10 km+ 3.400 ft 210° 210° 15 kt METAR EHAM 110025Z 21015KT 9999 FEW028 OVC034 13/06 Q1027 NOSIG
01:55
V
13 °C 10 km+ 3.300 ft 210° 210° 16 kt METAR EHAM 102355Z 21016KT 9999 BKN033 13/06 Q1027 NOSIG
01:25
V
13 °C 10 km+ 3.700 ft 200° 200° 14 kt METAR EHAM 102325Z 20014KT 180V240 9999 FEW032 BKN037 13/06 Q1027 NOSIG
00:55
V
13 °C 10 km+ 3.500 ft 190° 190° 14 kt METAR EHAM 102255Z 19014KT 9999 BKN035 13/06 Q1027 NOSIG
00:25
V
13 °C 10 km+ 3.600 ft 190° 190° 15 kt METAR EHAM 102225Z 19015KT 9999 BKN036 13/06 Q1027 NOSIG

10 aprile 2024

Tempo Codice Tempo meteorologico Temp. Vista Base nuvolosa Vento METAR/SPECI
23:55
V
12 °C 10 km+ 3.600 ft 190° 190° 12 kt METAR EHAM 102155Z 19012KT 9999 BKN036 12/06 Q1027 NOSIG
23:25
V
12 °C 10 km+ 3.600 ft 170° 170° 10 kt METAR EHAM 102125Z 17010KT 9999 BKN036 12/07 Q1027 NOSIG
22:55
V
12 °C 10 km+ 4.200 ft 190° 190° 9 kt METAR EHAM 102055Z 19009KT 9999 BKN042 12/07 Q1027 NOSIG
22:25
V
11 °C 10 km+ - 200° 200° 9 kt METAR EHAM 102025Z 20009KT 9999 SCT047 11/07 Q1027 NOSIG
21:55
V
12 °C 10 km+ - 210° 210° 9 kt METAR EHAM 101955Z 21009KT CAVOK 12/07 Q1028 NOSIG
21:25
V
12 °C 10 km+ - 210° 210° 8 kt METAR EHAM 101925Z 21008KT CAVOK 12/07 Q1027 NOSIG
20:55
V
12 °C 10 km+ - 210° 210° 9 kt METAR EHAM 101855Z 21009KT CAVOK 12/06 Q1027 NOSIG
20:25
V
12 °C 10 km+ - 210° 210° 10 kt METAR EHAM 101825Z 21010KT CAVOK 12/05 Q1027 NOSIG
19:55
V
13 °C 10 km+ - 200° 200° 10 kt METAR EHAM 101755Z 20010KT 170V230 CAVOK 13/05 Q1027 NOSIG
19:25
V
13 °C 10 km+ - 220° 220° 13 kt METAR EHAM 101725Z 22013KT 190V250 CAVOK 13/04 Q1028 NOSIG
18:55
V
14 °C 10 km+ - 220° 220° 16 kt METAR EHAM 101655Z 22016KT CAVOK 14/05 Q1028 NOSIG
18:25
V
14 °C 10 km+ - 220° 220° 14 kt METAR EHAM 101625Z 22014KT 180V250 CAVOK 14/02 Q1028 NOSIG
17:55
V
14 °C 10 km+ - 240° 240° 12 kt METAR EHAM 101555Z 24012KT 210V280 CAVOK 14/01 Q1028 NOSIG
17:25
V
14 °C 10 km+ - 250° 250° 15 kt METAR EHAM 101525Z 25015KT CAVOK 14/01 Q1028 NOSIG
16:55
V
14 °C 10 km+ - 250° 250° 14 kt METAR EHAM 101455Z 25014KT 210V290 CAVOK 14/01 Q1028 NOSIG
16:25
V
14 °C 10 km+ - 230° 230° 14 kt METAR EHAM 101425Z 23014KT 200V260 CAVOK 14/01 Q1028 NOSIG
15:55
V
14 °C 10 km+ - 240° 240° 13 kt METAR EHAM 101355Z 24013KT 200V280 9999 FEW045 14/01 Q1028 NOSIG
15:25
V
14 °C 10 km+ - 240° 240° 13 kt METAR EHAM 101325Z 24013KT 210V320 9999 FEW042 14/02 Q1028 NOSIG
14:55
V
14 °C 10 km+ - 230° 230° 13 kt METAR EHAM 101255Z 23013KT 200V290 9999 FEW040 14/01 Q1028 NOSIG
14:25
V
13 °C 10 km+ - 230° 230° 13 kt METAR EHAM 101225Z 23013KT 200V260 9999 FEW038 13/03 Q1028 NOSIG
13:55
V
13 °C 10 km+ - 230° 230° 13 kt METAR EHAM 101155Z 23013KT 200V270 9999 FEW038 13/03 Q1028 NOSIG
13:25
V
13 °C 10 km+ - 260° 260° 13 kt METAR EHAM 101125Z 26013KT 210V290 9999 FEW033 13/04 Q1028 NOSIG
12:55
V
12 °C 10 km+ - 250° 250° 11 kt METAR EHAM 101055Z 25011KT 220V290 9999 FEW033 12/04 Q1028 NOSIG
12:25
V
12 °C 10 km+ - 230° 230° 13 kt METAR EHAM 101025Z 23013KT 9999 FEW030 12/03 Q1027 NOSIG
11:55
V
12 °C 10 km+ - 250° 250° 10 kt METAR EHAM 100955Z 25010KT 220V290 9999 FEW030 12/05 Q1027 NOSIG
11:25
V
12 °C 10 km+ - 250° 250° 10 kt METAR EHAM 100925Z 25010KT 200V290 9999 FEW030 12/05 Q1027 NOSIG
10:55
V
11 °C 10 km+ - 250° 250° 10 kt METAR EHAM 100855Z 25010KT 220V280 9999 FEW026 11/05 Q1027 NOSIG
10:25
V
12 °C 10 km+ - 260° 260° 11 kt METAR EHAM 100825Z 26011KT 210V300 9999 FEW024 12/06 Q1026 NOSIG
09:55
V
11 °C 10 km+ - 260° 260° 10 kt METAR EHAM 100755Z 26010KT 9999 FEW024 11/06 Q1026 NOSIG
09:25
V
11 °C 10 km+ - 270° 270° 9 kt METAR EHAM 100725Z 27009KT 9999 SCT024 11/06 Q1026 NOSIG
08:55
V
10 °C 10 km+ - 260° 260° 9 kt METAR EHAM 100655Z 26009KT 230V290 9999 FEW024 10/06 Q1025 NOSIG
08:25
V
9 °C 10 km+ - 260° 260° 8 kt METAR EHAM 100625Z 26008KT 9999 FEW024 09/05 Q1025 NOSIG
07:55
M
9 °C 10 km+ 2.400 ft 250° 250° 9 kt METAR EHAM 100555Z 25009KT 9999 BKN024 09/06 Q1024 NOSIG
Segnala modifiche